Time;durP1;ratioP1;P1;durP2;ratioP2;P2;SDS_P1;SDS_P2;PMS_P1;PMS_P2;Temp;Humidity;BMP_temperature;BMP_pressure;BME280_temperature;BME280_humidity;BME280_pressure;Samples;Min_cycle;Max_cycle;Signal;HPM_P1;HPM_P2
2023/10/20 00:01:42;;;;;;;9.55;5.20;;;7.80;99.90;;;;;;5054014;28;20167;-71
2023/10/20 00:04:29;;;;;;;8.13;4.75;;;7.80;99.90;;;;;;5053719;28;20088;-79
2023/10/20 00:07:15;;;;;;;8.52;4.47;;;7.80;99.90;;;;;;5053580;28;20052;-77
2023/10/20 00:10:02;;;;;;;7.70;4.65;;;7.80;99.90;;;;;;5041123;28;20052;-81
2023/10/20 00:12:48;;;;;;;15.80;5.03;;;7.80;99.90;;;;;;5054010;28;20055;-77
2023/10/20 00:15:35;;;;;;;8.18;5.28;;;7.80;99.90;;;;;;5040019;28;20056;-73
2023/10/20 00:18:22;;;;;;;8.98;4.13;;;7.90;99.90;;;;;;5060859;28;20052;-78
2023/10/20 00:21:08;;;;;;;6.60;3.58;;;7.80;99.90;;;;;;5059372;28;20051;-74
2023/10/20 00:23:54;;;;;;;7.00;4.03;;;7.90;99.90;;;;;;5073467;28;20068;-73
2023/10/20 00:26:40;;;;;;;6.60;4.10;;;7.90;99.90;;;;;;5072682;28;20187;-73
2023/10/20 00:29:26;;;;;;;6.88;4.07;;;7.80;99.90;;;;;;5075911;28;20108;-74
2023/10/20 00:32:12;;;;;;;7.00;4.30;;;7.90;99.90;;;;;;5093060;28;20043;-72
2023/10/20 00:34:58;;;;;;;5.82;3.45;;;7.90;99.90;;;;;;5093051;28;20062;-73
2023/10/20 00:37:45;;;;;;;7.18;4.10;;;7.90;99.90;;;;;;5111391;28;20057;-73
2023/10/20 00:40:31;;;;;;;7.90;4.90;;;7.80;99.90;;;;;;5092840;28;20051;-77
2023/10/20 00:43:17;;;;;;;7.40;3.90;;;7.90;99.90;;;;;;5092820;28;20047;-77
2023/10/20 00:46:07;;;;;;;8.93;4.05;;;7.90;99.90;;;;;;5092423;28;20059;-72
2023/10/20 00:48:53;;;;;;;9.27;5.18;;;7.90;99.90;;;;;;5092543;28;20101;-72
2023/10/20 00:51:40;;;;;;;7.25;4.28;;;7.90;99.90;;;;;;5079611;28;20112;-72
2023/10/20 00:54:27;;;;;;;6.68;4.30;;;7.90;99.90;;;;;;5092219;28;20085;-71
2023/10/20 00:57:16;;;;;;;7.47;4.22;;;7.90;99.90;;;;;;5093042;28;20090;-76
2023/10/20 01:00:04;;;;;;;7.90;4.63;;;7.90;99.90;;;;;;5096323;28;20197;-76
2023/10/20 01:02:53;;;;;;;8.82;4.75;;;7.90;99.90;;;;;;5092535;28;20075;-76
2023/10/20 01:05:39;;;;;;;7.03;4.20;;;7.90;99.90;;;;;;5110637;28;20429;-78
2023/10/20 01:08:25;;;;;;;8.43;4.85;;;7.90;99.90;;;;;;5093019;28;20059;-72
2023/10/20 01:11:11;;;;;;;8.27;4.88;;;7.90;99.90;;;;;;5092579;28;20601;-77
2023/10/20 01:13:57;;;;;;;6.88;3.88;;;7.90;99.90;;;;;;5110336;28;20088;-77
2023/10/20 01:16:43;;;;;;;7.18;4.45;;;7.90;99.90;;;;;;5091952;28;20055;-72
2023/10/20 01:19:29;;;;;;;7.57;4.13;;;7.90;99.90;;;;;;5091894;28;20740;-75
2023/10/20 01:22:15;;;;;;;6.05;3.58;;;7.90;99.90;;;;;;5091759;28;20056;-74
2023/10/20 01:25:01;;;;;;;7.88;4.15;;;7.90;99.90;;;;;;5091848;28;20056;-73
2023/10/20 01:27:47;;;;;;;8.10;3.78;;;7.90;99.90;;;;;;5091749;28;20077;-75
2023/10/20 01:30:33;;;;;;;6.68;3.75;;;7.90;99.90;;;;;;5092025;28;20093;-74
2023/10/20 01:33:19;;;;;;;7.18;3.67;;;7.90;99.90;;;;;;5092362;28;20052;-79
2023/10/20 01:36:06;;;;;;;6.90;4.00;;;7.90;99.90;;;;;;5110366;28;20579;-72
2023/10/20 01:38:51;;;;;;;7.10;3.72;;;7.90;99.90;;;;;;5092459;28;20055;-79
2023/10/20 01:41:38;;;;;;;6.63;3.80;;;7.90;99.90;;;;;;5092978;28;20064;-77
2023/10/20 01:44:24;;;;;;;6.85;3.75;;;7.90;99.90;;;;;;5092397;28;20058;-74
2023/10/20 01:47:10;;;;;;;6.45;3.60;;;7.90;99.90;;;;;;5079362;28;20453;-79
2023/10/20 01:49:56;;;;;;;6.70;3.47;;;7.90;99.90;;;;;;5097248;28;20048;-75
2023/10/20 01:52:42;;;;;;;5.95;3.55;;;7.90;99.90;;;;;;5085480;28;20491;-72
2023/10/20 01:55:28;;;;;;;6.82;3.42;;;7.90;99.90;;;;;;5096999;28;20058;-75
2023/10/20 01:58:14;;;;;;;7.22;3.00;;;7.90;99.90;;;;;;5097569;28;20051;-71
2023/10/20 02:01:00;;;;;;;6.10;3.15;;;7.90;99.90;;;;;;5085570;28;20138;-72
2023/10/20 02:03:47;;;;;;;6.47;3.10;;;7.90;99.90;;;;;;5079121;28;20059;-73
2023/10/20 02:06:33;;;;;;;6.18;3.10;;;7.90;99.90;;;;;;5078854;28;20419;-72
2023/10/20 02:09:19;;;;;;;5.53;3.42;;;7.90;99.90;;;;;;5091784;28;20051;-73
2023/10/20 02:12:05;;;;;;;6.47;3.60;;;7.90;99.90;;;;;;5110031;28;20051;-73
2023/10/20 02:14:51;;;;;;;8.02;4.88;;;7.90;99.90;;;;;;5109959;28;20052;-73
2023/10/20 02:17:37;;;;;;;7.13;4.10;;;7.90;99.90;;;;;;5092571;28;20059;-72
2023/10/20 02:20:25;;;;;;;7.43;3.95;;;7.90;99.90;;;;;;5078545;28;20048;-73
2023/10/20 02:23:11;;;;;;;10.98;5.30;;;7.90;99.90;;;;;;5110078;28;20044;-72
2023/10/20 02:26:02;;;;;;;10.63;5.90;;;7.90;99.90;;;;;;5091855;28;20058;-72
2023/10/20 02:28:48;;;;;;;14.60;8.23;;;7.80;99.90;;;;;;5091036;28;20248;-74
2023/10/20 02:31:34;;;;;;;19.15;7.63;;;7.80;99.90;;;;;;5082247;28;20063;-72
2023/10/20 02:34:21;;;;;;;17.92;8.52;;;7.80;99.90;;;;;;5095092;28;20479;-72
2023/10/20 02:37:09;;;;;;;18.95;8.82;;;7.80;99.90;;;;;;5094694;28;20067;-72
2023/10/20 02:39:55;;;;;;;17.92;9.32;;;7.80;99.90;;;;;;5081017;28;20054;-72
2023/10/20 02:42:43;;;;;;;23.92;9.27;;;7.80;99.90;;;;;;5095088;28;20056;-73
2023/10/20 02:45:29;;;;;;;20.33;10.68;;;7.80;99.90;;;;;;5081591;28;20055;-72
2023/10/20 02:48:15;;;;;;;20.10;10.13;;;7.80;99.90;;;;;;5082164;28;20483;-73
2023/10/20 02:51:12;;;;;;;20.58;10.48;;;7.80;99.90;;;;;;5095469;28;20540;-72
2023/10/20 02:53:58;;;;;;;23.50;10.80;;;7.80;99.90;;;;;;5113113;28;20076;-72
2023/10/20 02:56:45;;;;;;;25.02;11.95;;;7.80;99.90;;;;;;5094996;28;20055;-72
2023/10/20 02:59:31;;;;;;;22.65;11.10;;;7.80;99.90;;;;;;5094759;28;20044;-72
2023/10/20 03:02:20;;;;;;;23.92;11.52;;;7.80;99.90;;;;;;5095115;28;20048;-72
2023/10/20 03:05:07;;;;;;;23.13;11.98;;;7.80;99.90;;;;;;5094438;28;20507;-73
2023/10/20 03:07:54;;;;;;;31.73;12.88;;;7.70;99.90;;;;;;5094630;28;20079;-72
2023/10/20 03:10:40;;;;;;;30.52;14.82;;;7.80;99.90;;;;;;5081732;28;20056;-75
2023/10/20 03:13:27;;;;;;;29.60;13.23;;;7.70;99.90;;;;;;5082283;28;20063;-73
2023/10/20 03:16:13;;;;;;;30.92;14.30;;;7.70;99.90;;;;;;5080966;28;20051;-75
2023/10/20 03:18:58;;;;;;;33.63;14.57;;;7.70;99.90;;;;;;5091296;28;20589;-79
2023/10/20 03:21:45;;;;;;;26.55;14.40;;;7.70;99.90;;;;;;5068764;28;20052;-74
2023/10/20 03:24:30;;;;;;;29.75;13.98;;;7.70;99.90;;;;;;5085214;28;20651;-73
2023/10/20 03:27:18;;;;;;;28.30;14.07;;;7.70;99.90;;;;;;5074698;28;20052;-78
2023/10/20 03:30:05;;;;;;;26.48;14.57;;;7.70;99.90;;;;;;5060508;28;20055;-71
2023/10/20 03:32:51;;;;;;;24.30;13.52;;;7.70;99.90;;;;;;5077300;28;20060;-73
2023/10/20 03:35:38;;;;;;;26.38;12.98;;;7.70;99.90;;;;;;5091131;28;20072;-76
2023/10/20 03:38:24;;;;;;;28.17;13.80;;;7.60;99.90;;;;;;5074084;28;20086;-72
2023/10/20 03:41:11;;;;;;;25.52;12.43;;;7.70;99.90;;;;;;5073738;28;20150;-74
2023/10/20 03:43:57;;;;;;;19.83;11.90;;;7.70;99.90;;;;;;5092414;28;20050;-74
2023/10/20 03:46:49;;;;;;;17.75;10.00;;;7.70;99.90;;;;;;5092993;28;20044;-76
2023/10/20 03:49:36;;;;;;;18.90;9.90;;;7.70;99.90;;;;;;5091772;28;20075;-79
2023/10/20 03:52:23;;;;;;;20.80;11.82;;;7.70;99.90;;;;;;5092114;28;20052;-74
2023/10/20 03:55:13;;;;;;;19.60;10.27;;;7.70;99.90;;;;;;5073503;28;20052;-80
2023/10/20 03:57:59;;;;;;;18.48;10.10;;;7.70;99.90;;;;;;5073836;28;20048;-73
2023/10/20 04:00:46;;;;;;;17.85;8.80;;;7.70;99.90;;;;;;5073637;28;20084;-73
2023/10/20 04:03:33;;;;;;;17.55;8.80;;;7.70;99.90;;;;;;5072794;28;20040;-77
2023/10/20 04:06:19;;;;;;;17.83;9.07;;;7.70;99.90;;;;;;5073526;28;20051;-73
2023/10/20 04:09:09;;;;;;;13.15;8.18;;;7.70;99.90;;;;;;5074098;28;20105;-74
2023/10/20 04:11:56;;;;;;;13.65;8.30;;;7.70;99.90;;;;;;5073004;28;20082;-73
2023/10/20 04:14:42;;;;;;;15.00;7.55;;;7.70;99.90;;;;;;5073063;28;20044;-76
2023/10/20 04:17:28;;;;;;;12.98;6.50;;;7.70;99.90;;;;;;5065791;28;20426;-75
2023/10/20 04:20:18;;;;;;;12.57;6.82;;;7.70;99.90;;;;;;5073410;28;20060;-79
2023/10/20 04:23:04;;;;;;;11.57;6.40;;;7.70;99.90;;;;;;5073503;28;20113;-71
2023/10/20 04:25:53;;;;;;;11.02;7.07;;;7.70;99.90;;;;;;5073121;28;20083;-74
2023/10/20 04:28:42;;;;;;;11.93;6.75;;;7.70;99.90;;;;;;5073237;28;20385;-74
2023/10/20 04:53:11;;;;;;;11.70;6.07;;;7.80;99.90;;;;;;5071567;28;20171;-72
2023/10/20 04:59:10;;;;;;;9.40;5.20;;;7.80;99.90;;;;;;5091022;28;20058;-80
2023/10/20 05:01:59;;;;;;;7.97;4.15;;;7.80;99.90;;;;;;5076845;28;20112;-80
2023/10/20 05:04:49;;;;;;;8.50;4.82;;;7.80;99.90;;;;;;5091691;28;20109;-75
2023/10/20 05:07:35;;;;;;;7.47;3.97;;;7.80;99.90;;;;;;5073656;28;20131;-82
2023/10/20 05:10:21;;;;;;;6.75;3.35;;;7.80;99.90;;;;;;5072608;28;20491;-77
2023/10/20 05:13:07;;;;;;;5.70;3.28;;;7.80;99.90;;;;;;5072603;28;20062;-80
2023/10/20 05:15:53;;;;;;;10.13;3.22;;;7.80;99.90;;;;;;5091119;28;20059;-72
2023/10/20 05:18:40;;;;;;;8.95;3.22;;;7.80;99.90;;;;;;5071003;28;20095;-78
2023/10/20 05:21:26;;;;;;;5.28;2.70;;;7.80;99.90;;;;;;5071243;28;20510;-79
2023/10/20 05:24:12;;;;;;;7.85;3.00;;;7.80;99.90;;;;;;5071077;28;20048;-78
2023/10/20 05:26:58;;;;;;;6.78;2.45;;;7.70;99.90;;;;;;5089044;28;20059;-71
2023/10/20 05:29:44;;;;;;;8.38;3.10;;;7.80;99.90;;;;;;5070894;28;20090;-72
2023/10/20 05:32:31;;;;;;;6.30;2.95;;;7.80;99.90;;;;;;5071008;28;20507;-72
2023/10/20 05:35:17;;;;;;;5.22;2.80;;;7.80;99.90;;;;;;5071168;28;20087;-74
2023/10/20 05:38:03;;;;;;;9.43;2.85;;;7.70;99.90;;;;;;5072462;28;20056;-74
2023/10/20 05:40:57;;;;;;;4.72;2.25;;;7.80;99.90;;;;;;5071900;28;20059;-75
2023/10/20 05:43:43;;;;;;;6.15;2.50;;;7.70;99.90;;;;;;5072059;28;20048;-79
2023/10/20 05:46:29;;;;;;;7.40;2.50;;;7.70;99.90;;;;;;5089779;28;20081;-84
2023/10/20 05:49:15;;;;;;;5.22;2.05;;;7.70;99.90;;;;;;5058166;28;20082;-79
2023/10/20 05:52:01;;;;;;;6.57;2.70;;;7.70;99.90;;;;;;5071944;28;20496;-82
2023/10/20 05:54:49;;;;;;;5.93;2.60;;;7.70;99.90;;;;;;5071636;28;20442;-79
2023/10/20 05:57:35;;;;;;;5.57;2.58;;;7.70;99.90;;;;;;5058931;28;20412;-75
2023/10/20 06:00:21;;;;;;;4.85;2.47;;;7.70;99.90;;;;;;5072191;28;20052;-80
2023/10/20 06:03:07;;;;;;;5.68;2.90;;;7.70;99.90;;;;;;5071134;28;20056;-81
2023/10/20 06:05:58;;;;;;;5.50;2.92;;;7.70;99.90;;;;;;5074443;28;20051;-76
2023/10/20 06:08:44;;;;;;;7.63;3.15;;;7.70;99.90;;;;;;5075570;28;20052;-82
2023/10/20 06:11:30;;;;;;;8.40;2.65;;;7.70;99.90;;;;;;5047155;28;20059;-85
2023/10/20 06:14:16;;;;;;;8.82;3.72;;;7.70;99.90;;;;;;5076217;28;20079;-84
2023/10/20 06:17:02;;;;;;;7.47;3.03;;;7.60;99.90;;;;;;5075857;28;20094;-82
2023/10/20 06:19:48;;;;;;;7.68;3.58;;;7.60;99.90;;;;;;5075198;28;20044;-82
2023/10/20 06:22:35;;;;;;;8.63;3.38;;;7.60;99.90;;;;;;5093768;28;20060;-80
2023/10/20 06:25:21;;;;;;;15.50;6.05;;;7.60;99.90;;;;;;5061935;28;20052;-74
2023/10/20 06:28:07;;;;;;;6.90;3.50;;;7.60;99.90;;;;;;5075695;28;20134;-84
2023/10/20 06:30:57;;;;;;;6.68;3.70;;;7.60;99.90;;;;;;5075493;28;20131;-74
2023/10/20 06:33:43;;;;;;;6.75;3.53;;;7.60;99.90;;;;;;5075383;28;20052;-73
2023/10/20 06:36:30;;;;;;;5.78;3.65;;;7.60;99.90;;;;;;5075397;28;20097;-72
2023/10/20 06:39:18;;;;;;;6.47;3.17;;;7.60;99.90;;;;;;5075189;28;20060;-76
2023/10/20 06:42:05;;;;;;;7.97;3.70;;;7.60;99.90;;;;;;5074887;28;20059;-82
2023/10/20 06:44:51;;;;;;;11.32;3.95;;;7.50;99.90;;;;;;5074641;28;20056;-73
2023/10/20 06:47:41;;;;;;;8.45;3.65;;;7.50;99.90;;;;;;5092987;28;20561;-73
2023/10/20 06:50:27;;;;;;;6.85;3.20;;;7.50;99.90;;;;;;5075934;28;20056;-71
2023/10/20 06:53:13;;;;;;;9.02;3.47;;;7.50;99.90;;;;;;5075085;28;20052;-71
2023/10/20 06:56:01;;;;;;;7.10;3.75;;;7.50;99.90;;;;;;5074022;28;20532;-71
2023/10/20 06:58:48;;;;;;;10.43;4.15;;;7.50;99.90;;;;;;5075069;28;20052;-76
2023/10/20 07:01:35;;;;;;;6.20;3.13;;;7.50;99.90;;;;;;5075030;28;20113;-73
2023/10/20 07:04:21;;;;;;;7.22;3.58;;;7.50;99.90;;;;;;5093779;28;20047;-80
2023/10/20 07:07:12;;;;;;;7.80;3.38;;;7.50;99.90;;;;;;5073810;28;20048;-75
2023/10/20 07:09:58;;;;;;;7.45;3.45;;;7.50;99.90;;;;;;5074485;28;20059;-72
2023/10/20 07:12:44;;;;;;;6.50;3.35;;;7.50;99.90;;;;;;5074566;28;20088;-75
2023/10/20 07:15:33;;;;;;;6.85;3.35;;;7.50;99.90;;;;;;5091100;28;20070;-73
2023/10/20 07:18:19;;;;;;;6.03;2.55;;;7.50;99.90;;;;;;5075104;28;20052;-72
2023/10/20 07:21:05;;;;;;;5.70;2.63;;;7.50;99.90;;;;;;5075056;28;20056;-75
2023/10/20 07:23:52;;;;;;;7.22;3.03;;;7.50;99.90;;;;;;5074305;28;20060;-77
2023/10/20 07:26:38;;;;;;;6.22;2.50;;;7.50;99.90;;;;;;5074450;28;20048;-72
2023/10/20 07:29:24;;;;;;;7.25;3.33;;;7.50;99.90;;;;;;5092761;28;20040;-73
2023/10/20 07:32:12;;;;;;;9.57;2.63;;;7.50;99.90;;;;;;5074217;28;20094;-73
2023/10/20 07:34:58;;;;;;;5.25;2.33;;;7.50;99.90;;;;;;5092724;28;20462;-76
2023/10/20 07:37:44;;;;;;;7.72;2.53;;;7.60;99.90;;;;;;5073443;28;20047;-75
2023/10/20 07:40:34;;;;;;;4.35;1.85;;;7.50;99.90;;;;;;5074876;28;20059;-78
2023/10/20 07:43:21;;;;;;;4.07;1.95;;;7.50;99.90;;;;;;5074240;28;20064;-81
2023/10/20 07:46:15;;;;;;;5.88;2.35;;;7.50;99.90;;;;;;5061005;28;20048;-76
2023/10/20 07:49:01;;;;;;;5.28;1.92;;;7.60;99.90;;;;;;5092191;28;20067;-78
2023/10/20 07:51:47;;;;;;;5.30;1.90;;;7.50;99.90;;;;;;5074080;28;20052;-80
2023/10/20 07:54:33;;;;;;;4.03;1.80;;;7.50;99.90;;;;;;5073663;28;20140;-74
2023/10/20 07:57:20;;;;;;;6.53;2.08;;;7.50;99.90;;;;;;5073328;28;20056;-78
2023/10/20 08:00:13;;;;;;;4.70;2.15;;;7.60;99.90;;;;;;5074405;28;20048;-87
2023/10/20 08:02:59;;;;;;;5.65;2.47;;;7.60;99.90;;;;;;5073392;28;20550;-76
2023/10/20 08:05:45;;;;;;;3.42;1.70;;;7.50;99.90;;;;;;5073511;28;20056;-74
2023/10/20 08:08:31;;;;;;;4.82;2.47;;;7.50;99.90;;;;;;5073346;28;20157;-76
2023/10/20 08:11:17;;;;;;;5.75;2.08;;;7.50;99.90;;;;;;5073364;28;20141;-74
2023/10/20 08:14:05;;;;;;;5.53;2.08;;;7.50;99.90;;;;;;5092050;28;20086;-80
2023/10/20 08:16:51;;;;;;;6.30;3.08;;;7.50;99.90;;;;;;5074208;28;20109;-77
2023/10/20 08:19:36;;;;;;;5.68;2.30;;;7.50;99.90;;;;;;5073113;28;20058;-80
2023/10/20 08:22:22;;;;;;;3.90;2.10;;;7.50;99.90;;;;;;5073406;28;20067;-81
2023/10/20 08:25:09;;;;;;;4.10;2.13;;;7.50;99.90;;;;;;5073666;28;20462;-71
2023/10/20 08:27:55;;;;;;;5.22;2.40;;;7.50;99.90;;;;;;5091123;28;20056;-75
2023/10/20 08:30:41;;;;;;;4.53;2.08;;;7.50;99.90;;;;;;5072744;28;20129;-73
2023/10/20 08:33:27;;;;;;;9.68;2.50;;;7.50;99.90;;;;;;5091483;28;20051;-71
2023/10/20 08:36:20;;;;;;;5.72;2.78;;;7.50;99.90;;;;;;5074215;28;20048;-83
2023/10/20 08:39:13;;;;;;;5.07;1.92;;;7.50;99.90;;;;;;5072071;28;20043;-75
2023/10/20 08:42:00;;;;;;;5.05;2.00;;;7.50;99.90;;;;;;5071452;28;20060;-73
2023/10/20 08:44:46;;;;;;;4.65;1.98;;;7.40;99.90;;;;;;5073011;28;20040;-78
2023/10/20 08:47:33;;;;;;;5.15;2.15;;;7.50;99.90;;;;;;5072685;28;20459;-82
2023/10/20 08:50:20;;;;;;;3.88;2.00;;;7.50;99.90;;;;;;5072435;28;20135;-79
2023/10/20 08:53:08;;;;;;;4.70;1.95;;;7.50;99.90;;;;;;5073052;28;20055;-80
2023/10/20 08:55:54;;;;;;;8.10;3.55;;;7.50;99.90;;;;;;5072374;28;20484;-76
2023/10/20 08:58:40;;;;;;;4.80;1.98;;;7.50;99.90;;;;;;5059036;28;20075;-73
2023/10/20 09:01:26;;;;;;;5.30;1.92;;;7.50;99.90;;;;;;5072784;28;20052;-76
2023/10/20 09:04:21;;;;;;;5.80;2.47;;;7.40;99.90;;;;;;5090703;28;20052;-78
2023/10/20 09:07:16;;;;;;;5.03;2.13;;;7.40;99.90;;;;;;5071553;28;20488;-70
2023/10/20 09:10:02;;;;;;;;;;;7.40;99.90;;;;;;5059350;28;20094;-78
2023/10/20 09:12:49;;;;;;;;;;;7.40;99.90;;;;;;5073713;28;19920;-74
2023/10/20 09:15:35;;;;;;;4.32;1.83;;;7.40;99.90;;;;;;5071433;28;20303;-74
2023/10/20 09:18:22;;;;;;;4.75;2.10;;;7.40;99.90;;;;;;5090429;28;20059;-79
2023/10/20 09:21:08;;;;;;;3.92;1.90;;;7.40;99.90;;;;;;5072195;28;20483;-72
2023/10/20 09:24:02;;;;;;;6.68;1.95;;;7.40;99.90;;;;;;5071290;28;20437;-78
2023/10/20 09:26:48;;;;;;;7.05;2.67;;;7.40;99.90;;;;;;5072384;28;20467;-79
2023/10/20 09:29:37;;;;;;;4.18;1.92;;;7.40;99.90;;;;;;5059005;28;20097;-76
2023/10/20 09:32:23;;;;;;;9.45;2.33;;;7.30;99.90;;;;;;5071577;28;20051;-76
2023/10/20 09:35:09;;;;;;;7.18;2.58;;;7.30;99.90;;;;;;5072458;28;20169;-71
2023/10/20 09:37:57;;;;;;;6.75;2.90;;;7.30;99.90;;;;;;5071682;28;20056;-75
2023/10/20 09:40:44;;;;;;;7.03;2.33;;;7.30;99.90;;;;;;5089118;28;20044;-75
2023/10/20 09:43:35;;;;;;;5.68;2.35;;;7.30;99.90;;;;;;5057664;28;20044;-72
2023/10/20 09:46:24;;;;;;;7.82;3.13;;;7.30;99.90;;;;;;5058428;28;20175;-72
2023/10/20 09:49:14;;;;;;;5.82;2.72;;;7.30;99.90;;;;;;5058181;28;20105;-73
2023/10/20 09:52:00;;;;;;;5.85;2.92;;;7.30;99.90;;;;;;5057901;28;20060;-79
2023/10/20 09:54:50;;;;;;;4.63;2.20;;;7.20;99.90;;;;;;5072186;28;20060;-77
2023/10/20 09:57:36;;;;;;;5.65;1.95;;;7.20;99.90;;;;;;5090282;28;20088;-78
2023/10/20 10:00:34;;;;;;;5.78;2.47;;;7.20;99.90;;;;;;5072518;28;20060;-75
2023/10/20 10:03:37;;;;;;;5.53;2.15;;;7.20;99.90;;;;;;5058308;28;20083;-72
2023/10/20 10:06:24;;;;;;;4.53;2.45;;;7.20;99.90;;;;;;5090363;28;20052;-78
2023/10/20 10:09:10;;;;;;;6.85;2.08;;;7.20;99.90;;;;;;5072111;28;20066;-84
2023/10/20 10:11:56;;;;;;;4.70;1.80;;;7.20;99.90;;;;;;5071946;28;20576;-82
2023/10/20 10:14:55;;;;;;;9.57;1.90;;;7.20;99.90;;;;;;5070894;28;20058;-72
2023/10/20 10:17:46;;;;;;;4.63;2.30;;;7.20;99.90;;;;;;5070503;28;20059;-74
2023/10/20 10:20:39;;;;;;;5.82;1.83;;;7.20;99.90;;;;;;5070579;28;20048;-86
2023/10/20 10:23:28;;;;;;;5.82;2.15;;;7.20;99.90;;;;;;5071342;28;20182;-78
2023/10/20 10:26:14;;;;;;;8.00;2.22;;;7.20;99.90;;;;;;5057861;28;20056;-76
2023/10/20 10:29:01;;;;;;;4.85;2.22;;;7.20;99.90;;;;;;5071211;28;20134;-74
2023/10/20 10:31:48;;;;;;;6.07;2.00;;;7.20;99.90;;;;;;5088893;28;20063;-77
2023/10/20 10:34:42;;;;;;;5.32;1.85;;;7.20;99.90;;;;;;5071392;28;20379;-76
2023/10/20 10:37:33;;;;;;;3.15;1.42;;;7.20;99.90;;;;;;5070761;28;20056;-76
2023/10/20 10:40:22;;;;;;;8.90;2.20;;;7.20;99.90;;;;;;5058892;28;20377;-74
2023/10/20 10:43:15;;;;;;;4.03;1.80;;;7.20;99.90;;;;;;5071635;28;20051;-72
2023/10/20 10:46:00;;;;;;;6.20;2.13;;;7.20;99.90;;;;;;5089657;28;20059;-76
2023/10/20 10:48:47;;;;;;;5.18;1.70;;;7.20;99.90;;;;;;5070947;28;20056;-74
2023/10/20 10:51:33;;;;;;;4.22;1.73;;;7.20;99.90;;;;;;5073239;28;20052;-74
2023/10/20 10:54:19;;;;;;;3.42;1.42;;;7.20;99.90;;;;;;5075864;28;20051;-76
2023/10/20 10:57:05;;;;;;;4.80;1.73;;;7.20;99.90;;;;;;5075997;28;20098;-77
2023/10/20 10:59:51;;;;;;;3.47;1.35;;;7.20;99.90;;;;;;5094299;28;20098;-80
2023/10/20 11:02:37;;;;;;;4.43;1.63;;;7.20;99.90;;;;;;5092418;28;20051;-72
2023/10/20 11:05:24;;;;;;;4.28;1.58;;;7.20;99.90;;;;;;5075234;28;20056;-80
2023/10/20 11:08:11;;;;;;;5.68;1.55;;;7.20;99.90;;;;;;5092554;28;20110;-73
2023/10/20 11:10:59;;;;;;;4.35;1.35;;;7.20;99.90;;;;;;5074949;28;20091;-76
2023/10/20 11:13:45;;;;;;;3.38;1.33;;;7.20;99.90;;;;;;5074427;28;20051;-73
2023/10/20 11:16:35;;;;;;;5.53;1.67;;;7.20;99.90;;;;;;5074305;28;20071;-73
2023/10/20 11:19:22;;;;;;;4.82;1.52;;;7.20;99.90;;;;;;5073411;28;20044;-74
2023/10/20 11:22:15;;;;;;;6.22;1.75;;;7.20;99.90;;;;;;5074927;28;20058;-77
2023/10/20 11:25:01;;;;;;;3.47;1.58;;;7.20;99.90;;;;;;5073832;28;20134;-75
2023/10/20 11:27:54;;;;;;;6.50;1.88;;;7.20;99.90;;;;;;5091653;28;20135;-77
2023/10/20 11:30:42;;;;;;;5.88;1.70;;;7.20;99.90;;;;;;5074307;28;20165;-79
2023/10/20 11:33:28;;;;;;;3.45;1.42;;;7.20;99.90;;;;;;5074469;28;20389;-77
2023/10/20 11:36:14;;;;;;;3.05;1.20;;;7.20;99.90;;;;;;5072963;28;20686;-78
2023/10/20 11:39:00;;;;;;;5.53;1.73;;;7.30;99.90;;;;;;5074327;28;20052;-78
2023/10/20 11:41:47;;;;;;;7.82;1.90;;;7.20;99.90;;;;;;5074169;28;20048;-73
2023/10/20 11:44:33;;;;;;;3.97;1.80;;;7.30;99.90;;;;;;5074186;28;20055;-73
2023/10/20 11:47:19;;;;;;;6.40;1.40;;;7.20;99.90;;;;;;5073795;28;20589;-75
2023/10/20 11:50:08;;;;;;;2.92;1.08;;;7.30;99.90;;;;;;5091927;28;20056;-73
2023/10/20 11:52:54;;;;;;;7.60;3.20;;;7.20;99.90;;;;;;5072761;28;20052;-83
2023/10/20 11:55:41;;;;;;;4.68;1.75;;;7.20;99.90;;;;;;5074516;28;20054;-74
2023/10/20 11:58:27;;;;;;;3.72;1.17;;;7.20;99.90;;;;;;5092062;28;20092;-77
2023/10/20 12:01:13;;;;;;;4.25;1.48;;;7.20;99.90;;;;;;5073630;28;20055;-81
2023/10/20 12:04:00;;;;;;;4.43;1.67;;;7.20;99.90;;;;;;5073121;28;20046;-79
2023/10/20 12:06:46;;;;;;;5.38;1.60;;;7.20;99.90;;;;;;5073764;28;20056;-82
2023/10/20 12:09:33;;;;;;;3.35;1.50;;;7.20;99.90;;;;;;5074176;28;20055;-73
2023/10/20 12:12:19;;;;;;;4.05;1.35;;;7.20;99.90;;;;;;5092160;28;20086;-74
2023/10/20 12:15:07;;;;;;;6.32;1.60;;;7.20;99.90;;;;;;5073217;28;20060;-77
2023/10/20 12:17:53;;;;;;;6.75;2.28;;;7.20;99.90;;;;;;5072999;28;20507;-72
2023/10/20 12:20:39;;;;;;;2.50;1.23;;;7.20;99.90;;;;;;5073078;28;20048;-79
2023/10/20 12:23:25;;;;;;;2.83;1.15;;;7.20;99.90;;;;;;5078143;28;20063;-73
2023/10/20 12:26:11;;;;;;;4.38;1.27;;;7.10;99.90;;;;;;5097321;28;20101;-78
2023/10/20 12:28:57;;;;;;;7.13;1.50;;;7.10;99.90;;;;;;5097820;28;20075;-70
2023/10/20 12:31:43;;;;;;;4.28;2.08;;;7.10;99.90;;;;;;5077825;28;20495;-70
2023/10/20 12:34:31;;;;;;;5.25;1.40;;;7.10;99.90;;;;;;5080846;28;20051;-77
2023/10/20 12:37:17;;;;;;;4.90;1.10;;;7.10;99.90;;;;;;5077920;28;20051;-71
2023/10/20 12:40:05;;;;;;;3.25;1.20;;;7.10;99.90;;;;;;5073461;28;20048;-76
2023/10/20 12:42:51;;;;;;;3.22;1.17;;;7.10;99.90;;;;;;5057649;28;20043;-71
2023/10/20 12:45:38;;;;;;;3.38;1.17;;;7.10;99.90;;;;;;5072717;28;20052;-71
2023/10/20 12:48:24;;;;;;;2.63;1.08;;;7.10;99.90;;;;;;5072290;28;20106;-76
2023/10/20 12:51:11;;;;;;;2.38;1.10;;;7.10;99.90;;;;;;5091831;28;20051;-74
2023/10/20 12:53:57;;;;;;;3.25;1.45;;;7.10;99.90;;;;;;5072479;28;20059;-72
2023/10/20 12:56:44;;;;;;;2.40;1.13;;;7.10;99.90;;;;;;5072838;28;20051;-71
2023/10/20 12:59:30;;;;;;;3.60;1.38;;;7.10;99.90;;;;;;5059316;28;20048;-74
2023/10/20 13:02:16;;;;;;;2.45;1.02;;;7.10;99.90;;;;;;5072275;28;20143;-74
2023/10/20 13:05:04;;;;;;;3.17;1.20;;;7.10;99.90;;;;;;5072513;28;20105;-77
2023/10/20 13:07:50;;;;;;;4.90;1.13;;;7.10;99.90;;;;;;5072385;28;20052;-73
2023/10/20 13:10:36;;;;;;;2.80;1.00;;;7.10;99.90;;;;;;5072259;28;20541;-78
2023/10/20 13:13:22;;;;;;;3.15;1.02;;;7.10;99.90;;;;;;5090244;28;20051;-73
2023/10/20 13:16:08;;;;;;;3.30;1.05;;;7.10;99.90;;;;;;5073015;28;20058;-75
2023/10/20 13:18:54;;;;;;;6.00;1.15;;;7.10;99.90;;;;;;5088965;28;20052;-74
2023/10/20 13:21:40;;;;;;;2.67;0.98;;;7.10;99.90;;;;;;5071560;28;20055;-71
2023/10/20 13:24:27;;;;;;;7.15;1.23;;;7.10;99.90;;;;;;5089645;28;20534;-72
2023/10/20 13:27:13;;;;;;;9.15;1.30;;;7.10;99.90;;;;;;5071443;28;20109;-77
2023/10/20 13:30:00;;;;;;;3.35;0.98;;;7.00;99.90;;;;;;5071719;28;20467;-78
2023/10/20 13:32:46;;;;;;;4.28;1.00;;;7.10;99.90;;;;;;5090405;28;20059;-72
2023/10/20 13:35:40;;;;;;;4.68;0.80;;;7.00;99.90;;;;;;5071059;28;20133;-75
2023/10/20 13:38:26;;;;;;;6.10;1.00;;;7.00;99.90;;;;;;5075709;28;20051;-73
2023/10/20 13:41:12;;;;;;;4.55;1.00;;;7.00;99.90;;;;;;5072644;28;20488;-74
2023/10/20 13:43:58;;;;;;;6.63;1.30;;;7.00;99.90;;;;;;5071580;28;20052;-77
2023/10/20 13:46:44;;;;;;;2.40;0.75;;;7.00;99.90;;;;;;5070462;28;20052;-74
2023/10/20 13:49:30;;;;;;;4.82;0.88;;;6.90;99.90;;;;;;5070959;28;20056;-75
2023/10/20 13:52:16;;;;;;;5.15;0.82;;;6.90;99.90;;;;;;5071204;28;20143;-73
2023/10/20 13:55:03;;;;;;;2.53;0.80;;;6.90;99.90;;;;;;5071612;28;20155;-73
2023/10/20 14:01:50;;;;;;;2.45;0.95;;;6.90;99.90;;;;;;5091342;28;20070;-76
2023/10/20 14:04:36;;;;;;;2.65;0.80;;;6.90;99.90;;;;;;5071966;28;20079;-81
2023/10/20 14:07:22;;;;;;;2.35;0.80;;;6.90;99.90;;;;;;5058506;28;20064;-76
2023/10/20 14:10:08;;;;;;;2.40;0.70;;;6.90;99.90;;;;;;5071830;28;20052;-80
2023/10/20 14:12:58;;;;;;;1.92;0.50;;;6.90;99.90;;;;;;5072165;28;20052;-80
2023/10/20 14:15:44;;;;;;;2.10;0.70;;;6.90;99.90;;;;;;5075424;28;20048;-75
2023/10/20 14:18:30;;;;;;;1.33;0.55;;;6.90;99.90;;;;;;5070341;28;20059;-72
2023/10/20 14:21:16;;;;;;;3.03;0.80;;;6.90;99.90;;;;;;5088545;28;20142;-80
2023/10/20 14:24:03;;;;;;;2.10;0.60;;;6.90;99.90;;;;;;5071849;28;20591;-73
2023/10/20 14:26:49;;;;;;;1.25;0.52;;;6.90;99.90;;;;;;5074367;28;20403;-82
2023/10/20 14:29:35;;;;;;;2.30;0.77;;;6.90;99.90;;;;;;5075661;28;20491;-73
2023/10/20 14:32:21;;;;;;;5.53;0.68;;;6.80;99.90;;;;;;5061830;28;20060;-73
2023/10/20 14:35:08;;;;;;;4.57;0.80;;;6.80;99.90;;;;;;5075766;28;20063;-72
2023/10/20 14:37:56;;;;;;;1.67;0.70;;;6.80;99.90;;;;;;5075333;28;20052;-79
2023/10/20 14:40:42;;;;;;;1.95;0.77;;;6.80;99.90;;;;;;5093253;28;20411;-79
2023/10/20 14:43:32;;;;;;;1.42;0.60;;;6.80;99.90;;;;;;5092753;28;20048;-74
2023/10/20 14:46:18;;;;;;;1.30;0.60;;;6.80;99.90;;;;;;5093389;28;20144;-77
2023/10/20 14:49:04;;;;;;;1.83;0.88;;;6.80;99.90;;;;;;5075658;28;20047;-72
2023/10/20 14:51:50;;;;;;;1.73;0.55;;;6.80;99.90;;;;;;5074961;28;20052;-76
2023/10/20 14:54:36;;;;;;;2.85;0.55;;;6.80;99.90;;;;;;5074536;28;20052;-79
2023/10/20 14:57:23;;;;;;;2.35;0.70;;;6.80;99.90;;;;;;5061095;28;20082;-71
2023/10/20 15:00:10;;;;;;;1.33;0.50;;;6.80;99.90;;;;;;5093225;28;20048;-71
2023/10/20 15:02:56;;;;;;;2.13;0.57;;;6.80;99.90;;;;;;5074682;28;20052;-78
2023/10/20 15:05:45;;;;;;;6.32;0.52;;;6.80;99.90;;;;;;5074296;28;20044;-73
2023/10/20 15:08:33;;;;;;;1.67;0.52;;;6.80;99.90;;;;;;5074893;28;20412;-72